Hopedale, Illinois
Current Conditions -  °F | °C
As of 11:15 PM on Sunday 19 Oct 2014 (Local Time) from KAAA Reporting Station
Scattered Clouds Scattered Clouds  
Wind Chill: 54°   Ceiling: Unl
Heat Index: 54°   Visibility: 10mi
Dew Point: 46°   Wind: 3mph
Humidity: 74%   Direction: 190°S
Pressure: 29.98"   Gusts: NA
Location:  40.42°N, 89.41°W
Report Text: KAAA 200415Z AUTO 19003KT 10SM SCT085 SCT110 12/08 A2998 RMK AO2 T01210076
Loading
Personal Weather Stations






























Interactive Weather Map
Tropical Storm Tracking
New forecast layout! Learn more

10-Day Weather Forecast

Advertisements
Track Severe Weather on mobile